sensor_id;sensor_type;location;lat;lon;timestamp;P1;durP1;ratioP1;P2;durP2;ratioP2
27201;SDS011;14717;46.924;15.474;2023-03-01T00:00:25;23.98;;;11.73;;
27201;SDS011;14717;46.924;15.474;2023-03-01T00:02:51;23.17;;;10.45;;
27201;SDS011;14717;46.924;15.474;2023-03-01T00:05:16;23.58;;;10.05;;
27201;SDS011;14717;46.924;15.474;2023-03-01T00:07:41;25.10;;;11.15;;
27201;SDS011;14717;46.924;15.474;2023-03-01T00:10:07;25.20;;;10.68;;
27201;SDS011;14717;46.924;15.474;2023-03-01T00:12:32;23.65;;;10.38;;
27201;SDS011;14717;46.924;15.474;2023-03-01T00:14:58;22.10;;;9.95;;
27201;SDS011;14717;46.924;15.474;2023-03-01T00:17:23;23.58;;;9.77;;
27201;SDS011;14717;46.924;15.474;2023-03-01T00:19:49;23.05;;;9.98;;
27201;SDS011;14717;46.924;15.474;2023-03-01T00:22:14;22.38;;;10.20;;
27201;SDS011;14717;46.924;15.474;2023-03-01T00:24:39;23.65;;;10.55;;
27201;SDS011;14717;46.924;15.474;2023-03-01T00:27:05;22.90;;;10.65;;
27201;SDS011;14717;46.924;15.474;2023-03-01T00:29:30;18.55;;;9.48;;
27201;SDS011;14717;46.924;15.474;2023-03-01T00:31:55;20.10;;;10.35;;
27201;SDS011;14717;46.924;15.474;2023-03-01T00:34:21;24.98;;;10.70;;
27201;SDS011;14717;46.924;15.474;2023-03-01T00:36:46;23.20;;;10.30;;
27201;SDS011;14717;46.924;15.474;2023-03-01T00:39:13;21.70;;;10.50;;
27201;SDS011;14717;46.924;15.474;2023-03-01T00:41:39;23.25;;;9.80;;
27201;SDS011;14717;46.924;15.474;2023-03-01T00:44:05;21.92;;;9.90;;
27201;SDS011;14717;46.924;15.474;2023-03-01T00:46:31;20.98;;;9.68;;
27201;SDS011;14717;46.924;15.474;2023-03-01T00:48:56;20.63;;;10.07;;
27201;SDS011;14717;46.924;15.474;2023-03-01T00:51:23;22.67;;;9.98;;
27201;SDS011;14717;46.924;15.474;2023-03-01T00:53:51;23.23;;;10.20;;
27201;SDS011;14717;46.924;15.474;2023-03-01T00:56:17;20.13;;;9.07;;
27201;SDS011;14717;46.924;15.474;2023-03-01T00:58:43;24.80;;;11.13;;
27201;SDS011;14717;46.924;15.474;2023-03-01T01:01:13;21.42;;;9.80;;
27201;SDS011;14717;46.924;15.474;2023-03-01T01:04:04;21.73;;;9.90;;
27201;SDS011;14717;46.924;15.474;2023-03-01T01:06:33;21.33;;;9.32;;
27201;SDS011;14717;46.924;15.474;2023-03-01T01:09:01;19.60;;;9.35;;
27201;SDS011;14717;46.924;15.474;2023-03-01T01:11:28;21.38;;;10.20;;
27201;SDS011;14717;46.924;15.474;2023-03-01T01:16:20;20.08;;;9.35;;
27201;SDS011;14717;46.924;15.474;2023-03-01T01:18:47;20.77;;;9.55;;
27201;SDS011;14717;46.924;15.474;2023-03-01T01:21:15;21.20;;;9.82;;
27201;SDS011;14717;46.924;15.474;2023-03-01T01:23:42;21.77;;;8.90;;
27201;SDS011;14717;46.924;15.474;2023-03-01T01:26:10;22.02;;;10.07;;
27201;SDS011;14717;46.924;15.474;2023-03-01T01:28:36;23.00;;;9.95;;
27201;SDS011;14717;46.924;15.474;2023-03-01T01:31:02;21.25;;;9.70;;
27201;SDS011;14717;46.924;15.474;2023-03-01T01:33:28;22.98;;;10.10;;
27201;SDS011;14717;46.924;15.474;2023-03-01T01:35:53;24.95;;;10.40;;
27201;SDS011;14717;46.924;15.474;2023-03-01T01:38:19;21.15;;;10.25;;
27201;SDS011;14717;46.924;15.474;2023-03-01T01:40:46;20.65;;;9.77;;
27201;SDS011;14717;46.924;15.474;2023-03-01T01:43:21;22.08;;;10.63;;
27201;SDS011;14717;46.924;15.474;2023-03-01T01:45:48;24.25;;;11.38;;
27201;SDS011;14717;46.924;15.474;2023-03-01T01:48:16;23.33;;;10.80;;
27201;SDS011;14717;46.924;15.474;2023-03-01T01:50:45;28.38;;;11.45;;
27201;SDS011;14717;46.924;15.474;2023-03-01T01:53:18;25.08;;;11.63;;
27201;SDS011;14717;46.924;15.474;2023-03-01T01:55:45;24.88;;;11.48;;
27201;SDS011;14717;46.924;15.474;2023-03-01T01:58:15;26.02;;;11.27;;
27201;SDS011;14717;46.924;15.474;2023-03-01T02:00:44;28.38;;;12.43;;
27201;SDS011;14717;46.924;15.474;2023-03-01T02:03:11;26.30;;;11.30;;
27201;SDS011;14717;46.924;15.474;2023-03-01T02:06:03;21.52;;;11.30;;
27201;SDS011;14717;46.924;15.474;2023-03-01T02:08:31;21.60;;;10.50;;
27201;SDS011;14717;46.924;15.474;2023-03-01T02:11:02;22.60;;;9.93;;
27201;SDS011;14717;46.924;15.474;2023-03-01T02:13:30;26.67;;;12.30;;
27201;SDS011;14717;46.924;15.474;2023-03-01T02:15:56;23.73;;;10.98;;
27201;SDS011;14717;46.924;15.474;2023-03-01T02:18:21;21.50;;;10.68;;
27201;SDS011;14717;46.924;15.474;2023-03-01T02:23:34;27.17;;;11.10;;
27201;SDS011;14717;46.924;15.474;2023-03-01T02:28:45;21.17;;;9.98;;
27201;SDS011;14717;46.924;15.474;2023-03-01T02:31:11;23.33;;;10.27;;
27201;SDS011;14717;46.924;15.474;2023-03-01T02:34:00;25.58;;;11.82;;
27201;SDS011;14717;46.924;15.474;2023-03-01T02:36:30;21.58;;;10.93;;
27201;SDS011;14717;46.924;15.474;2023-03-01T02:39:00;23.77;;;11.15;;
27201;SDS011;14717;46.924;15.474;2023-03-01T02:41:28;22.77;;;10.63;;
27201;SDS011;14717;46.924;15.474;2023-03-01T02:43:57;21.08;;;10.75;;
27201;SDS011;14717;46.924;15.474;2023-03-01T02:46:24;23.35;;;10.48;;
27201;SDS011;14717;46.924;15.474;2023-03-01T02:48:51;20.33;;;10.63;;
27201;SDS011;14717;46.924;15.474;2023-03-01T02:54:26;19.73;;;10.48;;
27201;SDS011;14717;46.924;15.474;2023-03-01T02:56:56;21.45;;;10.05;;
27201;SDS011;14717;46.924;15.474;2023-03-01T02:59:24;21.65;;;10.73;;
27201;SDS011;14717;46.924;15.474;2023-03-01T03:01:54;22.33;;;10.38;;
27201;SDS011;14717;46.924;15.474;2023-03-01T03:04:20;23.05;;;10.60;;
27201;SDS011;14717;46.924;15.474;2023-03-01T03:06:46;19.00;;;9.18;;
27201;SDS011;14717;46.924;15.474;2023-03-01T03:09:12;19.92;;;10.18;;
27201;SDS011;14717;46.924;15.474;2023-03-01T03:11:39;26.08;;;9.77;;
27201;SDS011;14717;46.924;15.474;2023-03-01T03:16:37;22.75;;;9.82;;
27201;SDS011;14717;46.924;15.474;2023-03-01T03:19:23;17.15;;;8.85;;
27201;SDS011;14717;46.924;15.474;2023-03-01T03:21:48;21.70;;;9.57;;
27201;SDS011;14717;46.924;15.474;2023-03-01T03:24:14;19.15;;;8.77;;
27201;SDS011;14717;46.924;15.474;2023-03-01T03:26:39;20.23;;;8.80;;
27201;SDS011;14717;46.924;15.474;2023-03-01T03:29:05;19.77;;;9.27;;
27201;SDS011;14717;46.924;15.474;2023-03-01T03:31:30;22.00;;;9.63;;
27201;SDS011;14717;46.924;15.474;2023-03-01T03:33:55;17.60;;;8.75;;
27201;SDS011;14717;46.924;15.474;2023-03-01T03:36:22;21.05;;;9.20;;
27201;SDS011;14717;46.924;15.474;2023-03-01T03:38:50;19.30;;;8.90;;
27201;SDS011;14717;46.924;15.474;2023-03-01T03:41:15;15.57;;;8.60;;
27201;SDS011;14717;46.924;15.474;2023-03-01T03:43:42;18.63;;;8.40;;
27201;SDS011;14717;46.924;15.474;2023-03-01T03:48:38;20.65;;;8.93;;
27201;SDS011;14717;46.924;15.474;2023-03-01T03:51:06;20.95;;;10.30;;
27201;SDS011;14717;46.924;15.474;2023-03-01T03:53:34;18.65;;;8.88;;
27201;SDS011;14717;46.924;15.474;2023-03-01T03:56:00;19.98;;;9.27;;
27201;SDS011;14717;46.924;15.474;2023-03-01T03:58:25;19.33;;;8.75;;
27201;SDS011;14717;46.924;15.474;2023-03-01T04:00:52;17.38;;;8.68;;
27201;SDS011;14717;46.924;15.474;2023-03-01T04:03:21;19.52;;;8.75;;
27201;SDS011;14717;46.924;15.474;2023-03-01T04:05:47;20.13;;;8.48;;
27201;SDS011;14717;46.924;15.474;2023-03-01T04:08:15;20.60;;;8.82;;
27201;SDS011;14717;46.924;15.474;2023-03-01T04:10:42;20.40;;;9.40;;
27201;SDS011;14717;46.924;15.474;2023-03-01T04:13:11;17.98;;;9.27;;
27201;SDS011;14717;46.924;15.474;2023-03-01T04:15:39;17.75;;;8.50;;
27201;SDS011;14717;46.924;15.474;2023-03-01T04:20:32;20.38;;;8.95;;
27201;SDS011;14717;46.924;15.474;2023-03-01T04:25:55;19.63;;;9.57;;
27201;SDS011;14717;46.924;15.474;2023-03-01T04:28:22;19.27;;;9.57;;
27201;SDS011;14717;46.924;15.474;2023-03-01T04:30:54;15.80;;;9.13;;
27201;SDS011;14717;46.924;15.474;2023-03-01T04:33:21;17.20;;;8.77;;
27201;SDS011;14717;46.924;15.474;2023-03-01T04:35:47;20.17;;;9.02;;
27201;SDS011;14717;46.924;15.474;2023-03-01T04:38:16;17.52;;;9.32;;
27201;SDS011;14717;46.924;15.474;2023-03-01T04:40:42;19.38;;;9.48;;
27201;SDS011;14717;46.924;15.474;2023-03-01T04:43:08;19.33;;;9.93;;
27201;SDS011;14717;46.924;15.474;2023-03-01T04:45:34;21.95;;;10.43;;
27201;SDS011;14717;46.924;15.474;2023-03-01T04:48:00;23.20;;;11.05;;
27201;SDS011;14717;46.924;15.474;2023-03-01T04:50:26;21.67;;;10.40;;
27201;SDS011;14717;46.924;15.474;2023-03-01T04:52:52;21.45;;;10.60;;
27201;SDS011;14717;46.924;15.474;2023-03-01T04:55:17;27.17;;;12.07;;
27201;SDS011;14717;46.924;15.474;2023-03-01T04:57:43;28.17;;;12.25;;
27201;SDS011;14717;46.924;15.474;2023-03-01T05:00:10;27.17;;;12.52;;
27201;SDS011;14717;46.924;15.474;2023-03-01T05:02:53;23.95;;;10.55;;
27201;SDS011;14717;46.924;15.474;2023-03-01T05:05:20;29.60;;;12.23;;
27201;SDS011;14717;46.924;15.474;2023-03-01T05:07:50;28.42;;;12.82;;
27201;SDS011;14717;46.924;15.474;2023-03-01T05:10:19;25.67;;;12.48;;
27201;SDS011;14717;46.924;15.474;2023-03-01T05:12:45;23.15;;;12.40;;
27201;SDS011;14717;46.924;15.474;2023-03-01T05:15:11;28.70;;;13.63;;
27201;SDS011;14717;46.924;15.474;2023-03-01T05:17:37;27.17;;;13.48;;
27201;SDS011;14717;46.924;15.474;2023-03-01T05:20:02;28.70;;;13.63;;
27201;SDS011;14717;46.924;15.474;2023-03-01T05:22:33;31.05;;;13.57;;
27201;SDS011;14717;46.924;15.474;2023-03-01T05:24:58;29.27;;;13.75;;
27201;SDS011;14717;46.924;15.474;2023-03-01T05:27:24;33.72;;;14.23;;
27201;SDS011;14717;46.924;15.474;2023-03-01T05:29:49;34.47;;;14.52;;
27201;SDS011;14717;46.924;15.474;2023-03-01T05:32:14;28.60;;;12.85;;
27201;SDS011;14717;46.924;15.474;2023-03-01T05:34:40;31.63;;;12.88;;
27201;SDS011;14717;46.924;15.474;2023-03-01T05:37:06;26.13;;;12.90;;
27201;SDS011;14717;46.924;15.474;2023-03-01T05:41:59;28.20;;;11.53;;
27201;SDS011;14717;46.924;15.474;2023-03-01T05:44:26;26.75;;;11.88;;
27201;SDS011;14717;46.924;15.474;2023-03-01T05:46:52;27.00;;;11.45;;
27201;SDS011;14717;46.924;15.474;2023-03-01T05:49:18;22.38;;;10.50;;
27201;SDS011;14717;46.924;15.474;2023-03-01T05:51:47;24.38;;;11.50;;
27201;SDS011;14717;46.924;15.474;2023-03-01T05:54:14;26.90;;;12.50;;
27201;SDS011;14717;46.924;15.474;2023-03-01T05:56:39;26.80;;;12.38;;
27201;SDS011;14717;46.924;15.474;2023-03-01T05:59:05;24.77;;;12.35;;
27201;SDS011;14717;46.924;15.474;2023-03-01T06:01:34;28.98;;;11.88;;
27201;SDS011;14717;46.924;15.474;2023-03-01T06:04:01;24.40;;;11.02;;
27201;SDS011;14717;46.924;15.474;2023-03-01T06:06:27;26.98;;;11.65;;
27201;SDS011;14717;46.924;15.474;2023-03-01T06:08:52;22.17;;;10.35;;
27201;SDS011;14717;46.924;15.474;2023-03-01T06:11:20;24.30;;;11.60;;
27201;SDS011;14717;46.924;15.474;2023-03-01T06:13:45;21.40;;;11.25;;
27201;SDS011;14717;46.924;15.474;2023-03-01T06:16:12;23.92;;;11.82;;
27201;SDS011;14717;46.924;15.474;2023-03-01T06:18:37;26.25;;;12.73;;
27201;SDS011;14717;46.924;15.474;2023-03-01T06:21:03;22.98;;;11.57;;
27201;SDS011;14717;46.924;15.474;2023-03-01T06:23:30;23.92;;;11.10;;
27201;SDS011;14717;46.924;15.474;2023-03-01T06:25:55;22.77;;;10.90;;
27201;SDS011;14717;46.924;15.474;2023-03-01T06:28:21;24.70;;;12.25;;
27201;SDS011;14717;46.924;15.474;2023-03-01T06:30:46;26.35;;;11.88;;
27201;SDS011;14717;46.924;15.474;2023-03-01T06:33:12;22.98;;;10.90;;
27201;SDS011;14717;46.924;15.474;2023-03-01T06:35:37;20.40;;;10.75;;
27201;SDS011;14717;46.924;15.474;2023-03-01T06:38:03;22.38;;;10.40;;
27201;SDS011;14717;46.924;15.474;2023-03-01T06:40:29;21.63;;;10.73;;
27201;SDS011;14717;46.924;15.474;2023-03-01T06:42:56;22.48;;;10.77;;
27201;SDS011;14717;46.924;15.474;2023-03-01T06:45:22;19.80;;;9.90;;
27201;SDS011;14717;46.924;15.474;2023-03-01T06:47:48;19.92;;;10.10;;
27201;SDS011;14717;46.924;15.474;2023-03-01T06:50:14;20.75;;;10.45;;
27201;SDS011;14717;46.924;15.474;2023-03-01T06:52:39;24.30;;;10.77;;
27201;SDS011;14717;46.924;15.474;2023-03-01T06:55:05;19.48;;;10.27;;
27201;SDS011;14717;46.924;15.474;2023-03-01T06:57:31;22.38;;;10.27;;
27201;SDS011;14717;46.924;15.474;2023-03-01T06:59:56;21.40;;;11.05;;
27201;SDS011;14717;46.924;15.474;2023-03-01T07:02:22;20.85;;;10.13;;
27201;SDS011;14717;46.924;15.474;2023-03-01T07:04:51;26.40;;;10.77;;
27201;SDS011;14717;46.924;15.474;2023-03-01T07:07:16;22.60;;;9.32;;
27201;SDS011;14717;46.924;15.474;2023-03-01T07:09:43;19.45;;;9.52;;
27201;SDS011;14717;46.924;15.474;2023-03-01T07:12:11;20.77;;;10.07;;
27201;SDS011;14717;46.924;15.474;2023-03-01T07:14:37;23.33;;;10.15;;
27201;SDS011;14717;46.924;15.474;2023-03-01T07:17:02;21.63;;;9.75;;
27201;SDS011;14717;46.924;15.474;2023-03-01T07:19:28;22.13;;;9.48;;
27201;SDS011;14717;46.924;15.474;2023-03-01T07:21:53;21.13;;;10.00;;
27201;SDS011;14717;46.924;15.474;2023-03-01T07:24:20;22.63;;;9.57;;
27201;SDS011;14717;46.924;15.474;2023-03-01T07:26:48;27.83;;;10.15;;
27201;SDS011;14717;46.924;15.474;2023-03-01T07:29:14;19.13;;;9.63;;
27201;SDS011;14717;46.924;15.474;2023-03-01T07:31:40;20.00;;;8.35;;
27201;SDS011;14717;46.924;15.474;2023-03-01T07:34:05;19.15;;;9.05;;
27201;SDS011;14717;46.924;15.474;2023-03-01T07:36:30;20.33;;;9.30;;
27201;SDS011;14717;46.924;15.474;2023-03-01T07:38:56;17.23;;;8.88;;
27201;SDS011;14717;46.924;15.474;2023-03-01T07:43:48;18.80;;;8.88;;
27201;SDS011;14717;46.924;15.474;2023-03-01T07:46:13;19.73;;;8.18;;
27201;SDS011;14717;46.924;15.474;2023-03-01T07:48:39;16.70;;;8.18;;
27201;SDS011;14717;46.924;15.474;2023-03-01T07:51:05;20.40;;;8.38;;
27201;SDS011;14717;46.924;15.474;2023-03-01T07:53:32;22.65;;;9.18;;
27201;SDS011;14717;46.924;15.474;2023-03-01T07:56:32;19.63;;;8.60;;
27201;SDS011;14717;46.924;15.474;2023-03-01T07:58:50;29.58;;;10.60;;
27201;SDS011;14717;46.924;15.474;2023-03-01T08:01:17;20.30;;;10.05;;
27201;SDS011;14717;46.924;15.474;2023-03-01T08:03:44;20.75;;;9.27;;
27201;SDS011;14717;46.924;15.474;2023-03-01T08:06:10;21.70;;;10.23;;
27201;SDS011;14717;46.924;15.474;2023-03-01T08:08:37;23.88;;;9.13;;
27201;SDS011;14717;46.924;15.474;2023-03-01T08:11:03;18.75;;;9.00;;
27201;SDS011;14717;46.924;15.474;2023-03-01T08:13:30;16.65;;;8.13;;
27201;SDS011;14717;46.924;15.474;2023-03-01T08:16:02;19.08;;;7.78;;
27201;SDS011;14717;46.924;15.474;2023-03-01T08:18:30;18.30;;;8.55;;
27201;SDS011;14717;46.924;15.474;2023-03-01T08:20:55;16.42;;;8.20;;
27201;SDS011;14717;46.924;15.474;2023-03-01T08:23:25;19.35;;;8.38;;
27201;SDS011;14717;46.924;15.474;2023-03-01T08:25:51;17.40;;;8.20;;
27201;SDS011;14717;46.924;15.474;2023-03-01T08:28:17;17.42;;;8.05;;
27201;SDS011;14717;46.924;15.474;2023-03-01T08:30:43;16.95;;;7.75;;
27201;SDS011;14717;46.924;15.474;2023-03-01T08:33:08;19.45;;;8.60;;
27201;SDS011;14717;46.924;15.474;2023-03-01T08:35:33;17.05;;;7.63;;
27201;SDS011;14717;46.924;15.474;2023-03-01T08:37:59;22.50;;;7.40;;
27201;SDS011;14717;46.924;15.474;2023-03-01T08:40:24;18.73;;;7.80;;
27201;SDS011;14717;46.924;15.474;2023-03-01T08:42:49;17.55;;;8.43;;
27201;SDS011;14717;46.924;15.474;2023-03-01T08:45:15;16.95;;;7.85;;
27201;SDS011;14717;46.924;15.474;2023-03-01T08:47:43;16.25;;;7.72;;
27201;SDS011;14717;46.924;15.474;2023-03-01T08:50:09;16.65;;;8.60;;
27201;SDS011;14717;46.924;15.474;2023-03-01T08:52:35;20.02;;;8.70;;
27201;SDS011;14717;46.924;15.474;2023-03-01T08:55:00;15.43;;;7.65;;
27201;SDS011;14717;46.924;15.474;2023-03-01T08:57:26;20.00;;;8.05;;
27201;SDS011;14717;46.924;15.474;2023-03-01T08:59:52;16.65;;;8.18;;
27201;SDS011;14717;46.924;15.474;2023-03-01T09:02:17;17.50;;;7.55;;
27201;SDS011;14717;46.924;15.474;2023-03-01T09:04:43;17.80;;;8.32;;
27201;SDS011;14717;46.924;15.474;2023-03-01T09:07:09;18.55;;;8.88;;
27201;SDS011;14717;46.924;15.474;2023-03-01T09:09:35;18.80;;;8.10;;
27201;SDS011;14717;46.924;15.474;2023-03-01T09:12:01;16.85;;;6.68;;
27201;SDS011;14717;46.924;15.474;2023-03-01T09:16:53;19.27;;;8.67;;
27201;SDS011;14717;46.924;15.474;2023-03-01T09:19:18;20.13;;;8.52;;
27201;SDS011;14717;46.924;15.474;2023-03-01T09:21:44;19.30;;;8.40;;
27201;SDS011;14717;46.924;15.474;2023-03-01T09:24:20;18.85;;;8.50;;
27201;SDS011;14717;46.924;15.474;2023-03-01T09:26:46;19.73;;;8.02;;
27201;SDS011;14717;46.924;15.474;2023-03-01T09:29:12;17.48;;;8.70;;
27201;SDS011;14717;46.924;15.474;2023-03-01T09:34:04;17.98;;;8.05;;
27201;SDS011;14717;46.924;15.474;2023-03-01T09:36:30;14.02;;;6.60;;
27201;SDS011;14717;46.924;15.474;2023-03-01T09:38:57;21.67;;;8.80;;
27201;SDS011;14717;46.924;15.474;2023-03-01T09:42:05;17.83;;;8.98;;
27201;SDS011;14717;46.924;15.474;2023-03-01T09:45:28;18.25;;;8.95;;
27201;SDS011;14717;46.924;15.474;2023-03-01T09:47:40;15.02;;;6.90;;
27201;SDS011;14717;46.924;15.474;2023-03-01T09:52:42;13.98;;;7.43;;
27201;SDS011;14717;46.924;15.474;2023-03-01T09:55:12;18.98;;;8.38;;
27201;SDS011;14717;46.924;15.474;2023-03-01T09:58:18;17.25;;;8.23;;
27201;SDS011;14717;46.924;15.474;2023-03-01T10:00:44;18.38;;;8.52;;
27201;SDS011;14717;46.924;15.474;2023-03-01T10:11:17;18.77;;;8.15;;
27201;SDS011;14717;46.924;15.474;2023-03-01T10:13:45;16.92;;;8.55;;
27201;SDS011;14717;46.924;15.474;2023-03-01T10:16:16;22.05;;;8.90;;
27201;SDS011;14717;46.924;15.474;2023-03-01T10:18:53;16.45;;;8.77;;
27201;SDS011;14717;46.924;15.474;2023-03-01T10:21:23;16.70;;;8.85;;
27201;SDS011;14717;46.924;15.474;2023-03-01T10:23:52;18.50;;;9.00;;
27201;SDS011;14717;46.924;15.474;2023-03-01T10:27:01;19.50;;;8.48;;
27201;SDS011;14717;46.924;15.474;2023-03-01T10:29:13;19.85;;;9.07;;
27201;SDS011;14717;46.924;15.474;2023-03-01T10:31:43;19.42;;;9.40;;
27201;SDS011;14717;46.924;15.474;2023-03-01T10:36:40;18.27;;;9.18;;
27201;SDS011;14717;46.924;15.474;2023-03-01T10:39:14;16.48;;;8.45;;
27201;SDS011;14717;46.924;15.474;2023-03-01T10:42:18;20.65;;;9.20;;
27201;SDS011;14717;46.924;15.474;2023-03-01T10:44:45;23.48;;;9.77;;
27201;SDS011;14717;46.924;15.474;2023-03-01T10:47:20;18.65;;;9.23;;
27201;SDS011;14717;46.924;15.474;2023-03-01T10:49:55;24.70;;;9.90;;
27201;SDS011;14717;46.924;15.474;2023-03-01T10:52:34;20.25;;;10.20;;
27201;SDS011;14717;46.924;15.474;2023-03-01T10:55:43;21.65;;;9.63;;
27201;SDS011;14717;46.924;15.474;2023-03-01T10:58:09;19.95;;;8.57;;
27201;SDS011;14717;46.924;15.474;2023-03-01T11:03:33;22.80;;;9.65;;
27201;SDS011;14717;46.924;15.474;2023-03-01T11:06:22;20.35;;;9.82;;
27201;SDS011;14717;46.924;15.474;2023-03-01T11:08:48;22.73;;;9.88;;
27201;SDS011;14717;46.924;15.474;2023-03-01T11:11:32;25.15;;;10.05;;
27201;SDS011;14717;46.924;15.474;2023-03-01T11:16:37;19.63;;;9.10;;
27201;SDS011;14717;46.924;15.474;2023-03-01T11:21:36;19.73;;;9.63;;
27201;SDS011;14717;46.924;15.474;2023-03-01T11:24:08;21.45;;;9.68;;
27201;SDS011;14717;46.924;15.474;2023-03-01T11:26:38;22.13;;;10.70;;
27201;SDS011;14717;46.924;15.474;2023-03-01T11:29:09;22.35;;;9.73;;
27201;SDS011;14717;46.924;15.474;2023-03-01T11:31:58;20.63;;;9.52;;
27201;SDS011;14717;46.924;15.474;2023-03-01T11:34:40;21.20;;;9.55;;
27201;SDS011;14717;46.924;15.474;2023-03-01T11:37:32;21.15;;;9.48;;
27201;SDS011;14717;46.924;15.474;2023-03-01T11:40:11;20.48;;;10.18;;
27201;SDS011;14717;46.924;15.474;2023-03-01T11:42:47;25.38;;;9.88;;
27201;SDS011;14717;46.924;15.474;2023-03-01T11:45:21;24.23;;;10.57;;
27201;SDS011;14717;46.924;15.474;2023-03-01T11:50:50;19.05;;;9.25;;
27201;SDS011;14717;46.924;15.474;2023-03-01T12:04:11;23.70;;;9.55;;
27201;SDS011;14717;46.924;15.474;2023-03-01T12:10:20;20.77;;;9.65;;
27201;SDS011;14717;46.924;15.474;2023-03-01T12:24:00;19.17;;;9.50;;
27201;SDS011;14717;46.924;15.474;2023-03-01T12:26:36;21.13;;;9.82;;
27201;SDS011;14717;46.924;15.474;2023-03-01T12:32:18;24.95;;;9.48;;
27201;SDS011;14717;46.924;15.474;2023-03-01T12:37:54;20.50;;;9.82;;
27201;SDS011;14717;46.924;15.474;2023-03-01T12:45:48;19.60;;;8.00;;
27201;SDS011;14717;46.924;15.474;2023-03-01T12:51:14;15.73;;;7.97;;
27201;SDS011;14717;46.924;15.474;2023-03-01T12:53:49;25.00;;;10.00;;
27201;SDS011;14717;46.924;15.474;2023-03-01T12:56:21;18.27;;;7.85;;
27201;SDS011;14717;46.924;15.474;2023-03-01T13:20:31;22.75;;;10.02;;
27201;SDS011;14717;46.924;15.474;2023-03-01T13:31:07;20.30;;;8.90;;
27201;SDS011;14717;46.924;15.474;2023-03-01T13:33:47;19.92;;;8.88;;
27201;SDS011;14717;46.924;15.474;2023-03-01T13:46:48;21.63;;;9.25;;
27201;SDS011;14717;46.924;15.474;2023-03-01T13:49:16;19.70;;;9.27;;
27201;SDS011;14717;46.924;15.474;2023-03-01T13:51:48;21.02;;;9.20;;
27201;SDS011;14717;46.924;15.474;2023-03-01T13:54:15;19.10;;;9.20;;
27201;SDS011;14717;46.924;15.474;2023-03-01T13:56:46;22.00;;;9.30;;
27201;SDS011;14717;46.924;15.474;2023-03-01T13:59:16;19.30;;;8.88;;
27201;SDS011;14717;46.924;15.474;2023-03-01T14:01:43;21.23;;;9.00;;
27201;SDS011;14717;46.924;15.474;2023-03-01T14:04:41;21.33;;;9.73;;
27201;SDS011;14717;46.924;15.474;2023-03-01T14:07:16;21.20;;;8.75;;
27201;SDS011;14717;46.924;15.474;2023-03-01T14:09:44;18.95;;;8.43;;
27201;SDS011;14717;46.924;15.474;2023-03-01T14:12:18;19.10;;;8.52;;
27201;SDS011;14717;46.924;15.474;2023-03-01T14:20:10;36.88;;;19.40;;
27201;SDS011;14717;46.924;15.474;2023-03-01T14:22:43;28.75;;;13.23;;
27201;SDS011;14717;46.924;15.474;2023-03-01T14:25:18;21.02;;;8.75;;
27201;SDS011;14717;46.924;15.474;2023-03-01T14:27:45;20.08;;;8.93;;
27201;SDS011;14717;46.924;15.474;2023-03-01T14:30:23;20.55;;;9.05;;
27201;SDS011;14717;46.924;15.474;2023-03-01T14:32:55;25.38;;;8.60;;
27201;SDS011;14717;46.924;15.474;2023-03-01T14:35:27;22.88;;;8.77;;
27201;SDS011;14717;46.924;15.474;2023-03-01T14:37:54;20.23;;;9.68;;
27201;SDS011;14717;46.924;15.474;2023-03-01T14:40:20;22.85;;;9.48;;
27201;SDS011;14717;46.924;15.474;2023-03-01T14:42:46;20.33;;;9.20;;
27201;SDS011;14717;46.924;15.474;2023-03-01T14:45:12;22.85;;;9.10;;
27201;SDS011;14717;46.924;15.474;2023-03-01T14:52:48;18.50;;;9.30;;
27201;SDS011;14717;46.924;15.474;2023-03-01T14:55:20;20.27;;;9.45;;
27201;SDS011;14717;46.924;15.474;2023-03-01T14:57:50;25.00;;;8.82;;
27201;SDS011;14717;46.924;15.474;2023-03-01T15:02:47;19.55;;;8.48;;
27201;SDS011;14717;46.924;15.474;2023-03-01T15:05:15;20.65;;;9.23;;
27201;SDS011;14717;46.924;15.474;2023-03-01T15:07:43;20.83;;;9.48;;
27201;SDS011;14717;46.924;15.474;2023-03-01T15:10:24;18.60;;;8.75;;
27201;SDS011;14717;46.924;15.474;2023-03-01T15:12:51;18.58;;;8.95;;
27201;SDS011;14717;46.924;15.474;2023-03-01T15:17:48;22.17;;;10.55;;
27201;SDS011;14717;46.924;15.474;2023-03-01T15:20:18;22.05;;;10.10;;
27201;SDS011;14717;46.924;15.474;2023-03-01T15:22:47;21.10;;;9.15;;
27201;SDS011;14717;46.924;15.474;2023-03-01T15:25:20;17.40;;;8.75;;
27201;SDS011;14717;46.924;15.474;2023-03-01T15:27:48;19.48;;;8.48;;
27201;SDS011;14717;46.924;15.474;2023-03-01T15:30:23;18.63;;;9.05;;
27201;SDS011;14717;46.924;15.474;2023-03-01T15:35:57;18.88;;;8.50;;
27201;SDS011;14717;46.924;15.474;2023-03-01T15:38:50;21.33;;;9.90;;
27201;SDS011;14717;46.924;15.474;2023-03-01T15:41:22;22.00;;;9.23;;
27201;SDS011;14717;46.924;15.474;2023-03-01T15:43:56;22.23;;;10.15;;
27201;SDS011;14717;46.924;15.474;2023-03-01T15:46:33;21.13;;;9.55;;
27201;SDS011;14717;46.924;15.474;2023-03-01T15:49:03;21.92;;;10.38;;
27201;SDS011;14717;46.924;15.474;2023-03-01T15:51:43;32.05;;;15.88;;
27201;SDS011;14717;46.924;15.474;2023-03-01T15:54:13;40.53;;;18.50;;
27201;SDS011;14717;46.924;15.474;2023-03-01T15:56:43;25.63;;;11.65;;
27201;SDS011;14717;46.924;15.474;2023-03-01T15:59:09;19.67;;;8.77;;
27201;SDS011;14717;46.924;15.474;2023-03-01T16:01:39;22.50;;;9.40;;
27201;SDS011;14717;46.924;15.474;2023-03-01T16:04:11;19.33;;;8.60;;
27201;SDS011;14717;46.924;15.474;2023-03-01T16:06:46;23.00;;;8.88;;
27201;SDS011;14717;46.924;15.474;2023-03-01T16:09:18;20.42;;;8.68;;
27201;SDS011;14717;46.924;15.474;2023-03-01T16:11:43;18.50;;;8.77;;
27201;SDS011;14717;46.924;15.474;2023-03-01T16:14:09;21.58;;;9.18;;
27201;SDS011;14717;46.924;15.474;2023-03-01T16:16:34;19.25;;;9.18;;
27201;SDS011;14717;46.924;15.474;2023-03-01T16:19:00;22.58;;;9.82;;
27201;SDS011;14717;46.924;15.474;2023-03-01T16:21:25;24.80;;;10.05;;
27201;SDS011;14717;46.924;15.474;2023-03-01T16:23:51;19.80;;;9.20;;
27201;SDS011;14717;46.924;15.474;2023-03-01T16:26:17;23.33;;;10.48;;
27201;SDS011;14717;46.924;15.474;2023-03-01T16:28:44;20.42;;;9.27;;
27201;SDS011;14717;46.924;15.474;2023-03-01T16:31:10;23.17;;;11.00;;
27201;SDS011;14717;46.924;15.474;2023-03-01T16:33:36;20.73;;;9.98;;
27201;SDS011;14717;46.924;15.474;2023-03-01T16:36:09;21.58;;;9.32;;
27201;SDS011;14717;46.924;15.474;2023-03-01T16:38:36;20.02;;;8.85;;
27201;SDS011;14717;46.924;15.474;2023-03-01T16:41:02;20.40;;;9.13;;
27201;SDS011;14717;46.924;15.474;2023-03-01T16:43:28;19.50;;;9.20;;
27201;SDS011;14717;46.924;15.474;2023-03-01T16:45:54;18.33;;;8.10;;
27201;SDS011;14717;46.924;15.474;2023-03-01T16:48:19;20.40;;;8.95;;
27201;SDS011;14717;46.924;15.474;2023-03-01T16:50:45;19.58;;;8.93;;
27201;SDS011;14717;46.924;15.474;2023-03-01T16:53:10;21.08;;;9.85;;
27201;SDS011;14717;46.924;15.474;2023-03-01T16:55:36;20.45;;;9.50;;
27201;SDS011;14717;46.924;15.474;2023-03-01T16:58:02;21.40;;;9.48;;
27201;SDS011;14717;46.924;15.474;2023-03-01T17:02:54;19.90;;;8.80;;